Time;durP1;ratioP1;P1;durP2;ratioP2;P2;SDS_P1;SDS_P2;PMS_P1;PMS_P2;Temp;Humidity;BMP_temperature;BMP_pressure;BME280_temperature;BME280_humidity;BME280_pressure;Samples;Min_cycle;Max_cycle;Signal;HPM_P1;HPM_P2
2022/11/28 00:01:33;;;;;;;18.60;12.15;;;5.20;76.20;;;;;;5067405;28;20073;-64
2022/11/28 00:03:59;;;;;;;28.85;12.70;;;5.20;76.20;;;;;;5065719;28;20040;-64
2022/11/28 00:06:26;;;;;;;32.00;12.25;;;5.20;76.10;;;;;;5053471;28;20021;-64
2022/11/28 00:08:51;;;;;;;17.92;10.77;;;5.20;76.10;;;;;;5070197;28;20025;-64
2022/11/28 00:11:18;;;;;;;24.58;11.77;;;5.20;76.00;;;;;;5065743;28;20025;-63
2022/11/28 00:13:44;;;;;;;21.58;12.70;;;5.20;76.00;;;;;;5071006;28;20025;-65
2022/11/28 00:16:14;;;;;;;20.10;12.18;;;5.20;76.10;;;;;;5045485;28;20068;-63
2022/11/28 00:18:40;;;;;;;25.50;12.95;;;5.30;76.20;;;;;;5062172;28;20105;-64
2022/11/28 00:21:09;;;;;;;19.20;12.88;;;5.30;76.30;;;;;;5067213;28;20028;-66
2022/11/28 00:23:35;;;;;;;23.70;12.52;;;5.30;76.20;;;;;;5067434;28;20029;-66
2022/11/28 00:26:07;;;;;;;30.67;12.57;;;5.30;76.20;;;;;;5058522;28;20142;-66
2022/11/28 00:28:33;;;;;;;26.23;12.52;;;5.30;76.20;;;;;;5058696;28;20025;-65
2022/11/28 00:30:59;;;;;;;20.45;11.85;;;5.30;76.10;;;;;;5064978;28;20047;-65
2022/11/28 00:33:24;;;;;;;19.75;12.52;;;5.30;76.00;;;;;;5065173;28;20067;-66
2022/11/28 00:35:50;;;;;;;21.58;12.73;;;5.30;76.10;;;;;;5063168;28;20028;-65
2022/11/28 00:38:16;;;;;;;21.45;12.25;;;5.30;76.00;;;;;;5061034;28;20589;-65
2022/11/28 00:40:42;;;;;;;17.42;11.65;;;5.30;75.90;;;;;;5061033;28;20025;-65
2022/11/28 00:43:07;;;;;;;20.60;12.15;;;5.30;76.00;;;;;;5063956;28;20025;-66
2022/11/28 00:45:33;;;;;;;25.05;12.52;;;5.30;75.90;;;;;;5064866;28;20079;-62
2022/11/28 00:47:59;;;;;;;20.58;12.05;;;5.30;75.80;;;;;;5067266;28;20029;-63
2022/11/28 00:50:24;;;;;;;21.25;12.80;;;5.30;75.90;;;;;;5067255;28;20064;-63
2022/11/28 00:52:50;;;;;;;20.75;12.95;;;5.30;76.10;;;;;;5068274;28;20076;-64
2022/11/28 00:55:15;;;;;;;23.60;12.57;;;5.30;76.10;;;;;;5062072;28;20052;-64
2022/11/28 00:57:41;;;;;;;21.52;12.95;;;5.30;76.20;;;;;;5057588;28;20033;-64
2022/11/28 01:00:08;;;;;;;21.08;12.93;;;5.30;76.10;;;;;;5063427;28;20040;-64
2022/11/28 01:02:34;;;;;;;22.13;13.15;;;5.30;76.00;;;;;;5067481;28;20025;-64
2022/11/28 01:05:00;;;;;;;32.72;12.93;;;5.30;75.90;;;;;;5063576;28;20033;-64
2022/11/28 01:07:27;;;;;;;36.38;14.02;;;5.30;75.80;;;;;;5066068;28;20076;-65
2022/11/28 01:09:54;;;;;;;21.38;13.20;;;5.30;75.80;;;;;;5064260;28;20542;-63
2022/11/28 01:12:19;;;;;;;27.23;14.05;;;5.20;75.80;;;;;;5054468;28;20033;-64
2022/11/28 01:14:45;;;;;;;23.15;12.88;;;5.20;76.60;;;;;;5065477;28;20090;-66
2022/11/28 01:17:11;;;;;;;28.13;13.70;;;5.20;75.90;;;;;;5062448;28;20044;-64
2022/11/28 01:19:37;;;;;;;24.13;13.13;;;5.20;76.00;;;;;;4977140;28;20109;-64
2022/11/28 01:22:05;;;;;;;20.60;12.57;;;5.20;76.00;;;;;;5056792;28;20114;-64
2022/11/28 01:24:31;;;;;;;24.67;14.43;;;5.20;76.00;;;;;;5061496;28;20024;-64
2022/11/28 01:26:57;;;;;;;23.00;13.20;;;5.20;76.10;;;;;;5056449;28;20025;-65
2022/11/28 01:29:22;;;;;;;20.58;12.55;;;5.20;76.00;;;;;;5061031;28;20541;-63
2022/11/28 01:31:48;;;;;;;19.80;12.85;;;5.20;76.00;;;;;;5061623;28;20041;-66
2022/11/28 01:34:15;;;;;;;31.90;13.90;;;5.20;76.10;;;;;;5065069;28;20025;-63
2022/11/28 01:36:41;;;;;;;25.75;13.45;;;5.20;76.20;;;;;;5064779;28;20028;-64
2022/11/28 01:39:06;;;;;;;25.80;13.57;;;5.10;76.10;;;;;;5062550;28;20045;-64
2022/11/28 01:41:32;;;;;;;25.55;12.60;;;5.10;76.00;;;;;;5069723;28;20035;-64
2022/11/28 01:44:06;;;;;;;24.67;13.55;;;5.10;75.90;;;;;;5060234;28;20509;-63
2022/11/28 01:46:34;;;;;;;20.77;13.43;;;5.10;75.90;;;;;;5053869;28;20033;-64
2022/11/28 01:49:17;;;;;;;25.27;13.48;;;5.10;75.90;;;;;;5062613;28;20065;-64
2022/11/28 01:51:51;;;;;;;22.40;13.40;;;5.00;76.10;;;;;;5064849;28;20096;-65
2022/11/28 01:54:19;;;;;;;28.73;13.25;;;5.00;76.00;;;;;;5063754;28;20538;-65
2022/11/28 01:56:51;;;;;;;23.95;13.80;;;5.00;76.20;;;;;;5063131;28;20029;-65
2022/11/28 01:59:19;;;;;;;26.85;13.15;;;5.00;76.40;;;;;;5062968;28;20109;-64
2022/11/28 02:01:45;;;;;;;34.63;14.18;;;5.00;76.40;;;;;;5066617;28;20062;-64
2022/11/28 02:04:13;;;;;;;30.67;13.00;;;5.00;76.40;;;;;;5064697;28;20060;-64
2022/11/28 02:06:40;;;;;;;26.48;14.68;;;5.00;76.30;;;;;;5035123;28;20036;-63
2022/11/28 02:09:11;;;;;;;24.33;13.77;;;5.00;76.40;;;;;;5077545;28;20043;-65
2022/11/28 02:12:09;;;;;;;33.00;12.50;;;5.00;76.50;;;;;;5070700;28;20040;-64
2022/11/28 02:14:37;;;;;;;19.08;12.05;;;5.00;76.90;;;;;;5068870;28;20033;-65
2022/11/28 02:17:06;;;;;;;28.17;13.40;;;5.00;76.70;;;;;;5065872;28;20028;-63
2022/11/28 02:19:52;;;;;;;34.63;14.73;;;5.00;76.40;;;;;;5060208;28;20041;-63
2022/11/28 02:22:28;;;;;;;22.10;14.27;;;5.00;76.70;;;;;;5064230;28;20092;-63
2022/11/28 02:25:29;;;;;;;24.65;13.93;;;5.00;76.50;;;;;;5058481;28;20109;-64
2022/11/28 02:28:20;;;;;;;22.85;14.30;;;5.00;76.80;;;;;;5055905;28;20029;-65
2022/11/28 02:30:56;;;;;;;21.65;12.88;;;5.00;76.90;;;;;;5056994;28;20063;-64
2022/11/28 02:33:29;;;;;;;23.45;13.68;;;5.10;76.60;;;;;;5066974;28;20020;-64
2022/11/28 02:36:25;;;;;;;30.27;13.40;;;5.10;76.80;;;;;;5067901;28;20032;-63
2022/11/28 02:39:11;;;;;;;27.33;12.50;;;5.10;77.00;;;;;;5057698;28;20039;-66
2022/11/28 02:41:45;;;;;;;30.42;13.98;;;5.10;76.90;;;;;;5069952;28;20025;-65
2022/11/28 02:44:42;;;;;;;19.50;10.07;;;5.10;76.70;;;;;;5061694;28;20048;-65
2022/11/28 02:47:16;;;;;;;38.67;12.73;;;5.10;76.90;;;;;;5059220;28;20322;-64
2022/11/28 02:49:52;;;;;;;30.60;13.43;;;5.10;76.70;;;;;;5061261;28;20031;-65
2022/11/28 02:52:25;;;;;;;32.13;13.85;;;5.10;76.60;;;;;;5059791;28;20024;-64
2022/11/28 02:54:53;;;;;;;34.28;14.00;;;5.10;76.60;;;;;;5058744;28;20043;-64
2022/11/28 02:57:18;;;;;;;26.75;13.25;;;5.10;76.70;;;;;;5063399;28;20063;-64
2022/11/28 02:59:47;;;;;;;64.30;13.07;;;5.10;76.70;;;;;;5067649;28;20036;-64
2022/11/28 03:02:22;;;;;;;25.63;13.90;;;5.10;76.70;;;;;;5061901;28;20030;-65
2022/11/28 03:04:59;;;;;;;27.35;13.10;;;5.10;76.70;;;;;;5055497;28;20030;-64
2022/11/28 03:07:43;;;;;;;48.92;14.05;;;5.10;76.90;;;;;;5066856;28;20025;-64
2022/11/28 03:10:35;;;;;;;27.27;12.32;;;5.10;76.90;;;;;;5053916;28;20032;-63
2022/11/28 03:13:41;;;;;;;25.80;12.60;;;5.20;77.10;;;;;;5061020;28;20041;-65
2022/11/28 03:16:17;;;;;;;28.65;13.07;;;5.20;77.00;;;;;;5060216;28;20104;-65
2022/11/28 03:19:05;;;;;;;27.08;12.73;;;5.20;76.70;;;;;;5058667;28;20047;-65
2022/11/28 03:21:43;;;;;;;20.65;12.18;;;5.20;77.00;;;;;;5062516;28;20032;-65
2022/11/28 03:24:39;;;;;;;25.27;11.63;;;5.20;76.80;;;;;;5054777;28;20060;-64
2022/11/28 03:27:12;;;;;;;30.27;13.02;;;5.20;77.00;;;;;;5060001;28;20074;-65
2022/11/28 03:29:55;;;;;;;35.47;13.55;;;5.20;77.40;;;;;;5062369;28;20074;-65
2022/11/28 03:32:32;;;;;;;31.20;13.07;;;5.30;76.80;;;;;;5064198;28;20017;-65
2022/11/28 03:35:10;;;;;;;21.75;12.73;;;5.30;76.60;;;;;;5048012;28;20079;-65
2022/11/28 03:37:42;;;;;;;21.98;12.88;;;5.30;76.70;;;;;;5058252;28;20084;-65
2022/11/28 03:40:16;;;;;;;21.63;12.30;;;5.30;76.60;;;;;;5035768;28;20045;-65
2022/11/28 03:42:46;;;;;;;22.27;12.63;;;5.30;76.50;;;;;;5063464;28;20089;-65
2022/11/28 03:45:18;;;;;;;21.02;12.15;;;5.30;76.40;;;;;;5053723;28;20029;-64
2022/11/28 03:47:48;;;;;;;20.15;12.15;;;5.30;76.50;;;;;;5060753;28;20037;-65
2022/11/28 03:50:24;;;;;;;20.83;13.57;;;5.30;76.50;;;;;;5061901;28;20108;-65
2022/11/28 03:53:03;;;;;;;20.77;13.30;;;5.30;76.60;;;;;;5061914;28;20029;-65
2022/11/28 03:55:54;;;;;;;25.55;12.77;;;5.30;76.60;;;;;;5054199;28;20127;-64
2022/11/28 03:58:34;;;;;;;26.60;13.57;;;5.30;76.50;;;;;;5062514;28;20081;-64
2022/11/28 04:01:35;;;;;;;24.95;13.65;;;5.30;76.50;;;;;;5056746;28;20103;-65
2022/11/28 04:04:09;;;;;;;40.22;13.73;;;5.30;76.60;;;;;;5057052;28;20108;-64
2022/11/28 04:07:04;;;;;;;28.05;12.98;;;5.30;76.40;;;;;;5060538;28;20021;-64
2022/11/28 04:09:30;;;;;;;;;;;5.30;76.20;;;;;;5057095;28;20033;-65
2022/11/28 04:12:06;;;;;;;22.08;11.90;;;5.30;76.40;;;;;;5063403;28;19931;-64
2022/11/28 04:14:44;;;;;;;26.00;13.05;;;5.20;75.80;;;;;;5052421;28;20392;-64
2022/11/28 04:17:19;;;;;;;22.00;13.30;;;5.20;76.00;;;;;;5062200;28;20043;-64
2022/11/28 04:20:03;;;;;;;37.80;12.55;;;5.20;76.30;;;;;;5065264;28;20048;-63
2022/11/28 04:22:43;;;;;;;27.10;14.43;;;5.20;76.60;;;;;;5060037;28;20487;-64
2022/11/28 04:25:14;;;;;;;21.40;13.45;;;5.20;76.80;;;;;;5065951;28;20044;-64
2022/11/28 04:27:59;;;;;;;21.20;13.05;;;5.20;76.60;;;;;;5062188;28;20092;-63
2022/11/28 04:30:25;;;;;;;24.30;13.85;;;5.20;76.80;;;;;;5062208;28;20064;-63
2022/11/28 04:32:56;;;;;;;23.63;14.00;;;5.20;76.60;;;;;;5070245;28;20021;-63
2022/11/28 04:35:39;;;;;;;26.02;14.00;;;5.20;76.80;;;;;;5059763;28;20052;-63
2022/11/28 04:38:08;;;;;;;26.90;14.70;;;5.20;76.60;;;;;;5067327;28;20021;-64
2022/11/28 04:40:43;;;;;;;22.45;13.32;;;5.20;76.60;;;;;;5060306;28;20260;-64
2022/11/28 04:43:17;;;;;;;25.02;13.57;;;5.20;76.80;;;;;;5061167;28;20029;-63
2022/11/28 04:46:08;;;;;;;30.30;14.35;;;5.20;76.80;;;;;;5071913;28;20035;-66
2022/11/28 04:48:34;;;;;;;28.55;13.35;;;5.20;76.80;;;;;;5063486;28;20048;-64
2022/11/28 04:51:18;;;;;;;21.92;13.48;;;5.30;76.70;;;;;;5066535;28;20035;-64
2022/11/28 04:54:13;;;;;;;14.18;8.75;;;5.30;76.80;;;;;;5062430;28;20041;-63
2022/11/28 04:56:49;;;;;;;19.98;11.65;;;5.30;76.80;;;;;;5051207;28;20048;-65
2022/11/28 04:59:16;;;;;;;22.00;13.00;;;5.30;76.60;;;;;;5066016;28;20065;-65
2022/11/28 05:01:44;;;;;;;23.30;13.13;;;5.30;76.60;;;;;;5066279;28;20397;-65
2022/11/28 05:04:12;;;;;;;21.33;13.25;;;5.30;76.70;;;;;;5064804;28;20028;-65
2022/11/28 05:06:38;;;;;;;20.77;12.80;;;5.30;76.60;;;;;;5069526;28;20021;-65
2022/11/28 05:09:04;;;;;;;18.13;12.10;;;5.30;76.60;;;;;;5065789;28;20048;-64
2022/11/28 05:11:30;;;;;;;20.55;12.60;;;5.30;76.60;;;;;;5066513;28;20080;-63
2022/11/28 05:13:55;;;;;;;19.83;12.15;;;5.30;76.60;;;;;;5061198;28;20063;-65
2022/11/28 05:16:22;;;;;;;21.58;12.23;;;5.30;76.30;;;;;;5065224;28;20031;-64
2022/11/28 05:18:49;;;;;;;20.27;12.50;;;5.30;76.40;;;;;;5068508;28;20127;-65
2022/11/28 05:21:15;;;;;;;20.05;12.93;;;5.30;76.50;;;;;;5058033;28;20114;-65
2022/11/28 05:23:42;;;;;;;24.05;13.07;;;5.30;76.50;;;;;;5064921;28;20036;-65
2022/11/28 05:26:14;;;;;;;19.83;13.35;;;5.30;76.50;;;;;;5061473;28;20029;-65
2022/11/28 05:28:45;;;;;;;18.60;12.32;;;5.30;76.70;;;;;;5066507;28;20025;-64
2022/11/28 05:31:11;;;;;;;17.38;11.73;;;5.30;76.70;;;;;;5064003;28;20371;-64
2022/11/28 05:33:37;;;;;;;21.80;12.45;;;5.30;76.60;;;;;;5062526;28;20064;-65
2022/11/28 05:36:08;;;;;;;22.88;12.63;;;5.30;76.20;;;;;;5056907;28;20036;-65
2022/11/28 05:38:34;;;;;;;16.85;11.07;;;5.30;76.10;;;;;;5040414;28;20041;-66
2022/11/28 05:41:00;;;;;;;16.60;10.80;;;5.30;76.10;;;;;;5057668;28;20073;-64
2022/11/28 05:43:26;;;;;;;21.60;13.00;;;5.20;76.30;;;;;;5064048;28;20036;-65
2022/11/28 05:45:53;;;;;;;19.52;12.65;;;5.20;76.50;;;;;;5067124;28;20022;-65
2022/11/28 05:48:19;;;;;;;19.25;12.57;;;5.20;77.40;;;;;;5066929;28;20025;-65
2022/11/28 05:50:44;;;;;;;18.80;12.27;;;5.20;76.80;;;;;;5066739;28;20032;-65
2022/11/28 05:53:10;;;;;;;18.30;12.23;;;5.30;76.90;;;;;;5064891;28;20035;-65
2022/11/28 05:55:38;;;;;;;19.95;12.55;;;5.30;76.90;;;;;;5060681;28;20106;-65
2022/11/28 05:58:04;;;;;;;20.42;13.13;;;5.30;76.90;;;;;;5061240;28;20036;-65
2022/11/28 06:00:30;;;;;;;19.67;12.15;;;5.30;76.90;;;;;;5062262;28;20029;-65
2022/11/28 06:02:56;;;;;;;20.05;12.35;;;5.40;77.00;;;;;;5061087;28;20052;-65
2022/11/28 06:05:22;;;;;;;20.70;11.50;;;5.40;76.90;;;;;;5043674;28;20356;-65
2022/11/28 06:07:47;;;;;;;16.90;10.95;;;5.40;76.80;;;;;;5063625;28;20089;-64
2022/11/28 06:10:13;;;;;;;15.60;10.73;;;5.40;76.70;;;;;;5066952;28;20506;-65
2022/11/28 06:12:39;;;;;;;16.85;11.02;;;5.50;76.60;;;;;;5057191;28;20390;-65
2022/11/28 06:15:05;;;;;;;18.80;11.30;;;5.50;76.50;;;;;;5071006;28;20035;-65
2022/11/28 06:17:31;;;;;;;18.00;11.57;;;5.50;76.50;;;;;;5064317;28;20046;-64
2022/11/28 06:19:57;;;;;;;16.65;11.23;;;5.50;76.50;;;;;;5066423;28;20075;-65
2022/11/28 06:22:23;;;;;;;14.75;10.60;;;5.50;76.50;;;;;;5061541;28;20106;-65
2022/11/28 06:24:49;;;;;;;15.68;10.55;;;5.50;76.40;;;;;;5070118;28;20017;-65
2022/11/28 06:27:14;;;;;;;17.00;11.20;;;5.50;76.30;;;;;;5056529;28;20048;-65
2022/11/28 06:29:40;;;;;;;16.40;10.90;;;5.50;76.30;;;;;;5061025;28;20029;-65
2022/11/28 06:32:06;;;;;;;15.75;10.85;;;5.50;76.30;;;;;;5064916;28;20088;-65
2022/11/28 06:34:32;;;;;;;16.40;10.95;;;5.50;76.30;;;;;;5064084;28;20036;-66
2022/11/28 06:36:58;;;;;;;15.90;10.95;;;5.50;76.30;;;;;;5063835;28;20037;-65
2022/11/28 06:39:24;;;;;;;17.73;11.43;;;5.50;76.30;;;;;;5060956;28;20052;-65
2022/11/28 06:41:50;;;;;;;16.13;11.43;;;5.50;76.30;;;;;;5067870;28;20049;-64
2022/11/28 06:44:16;;;;;;;14.90;10.65;;;5.50;76.20;;;;;;5062817;28;20056;-66
2022/11/28 06:46:42;;;;;;;18.08;12.00;;;5.50;76.30;;;;;;5056467;28;20037;-64
2022/11/28 06:49:11;;;;;;;17.13;10.80;;;5.60;76.30;;;;;;5059013;28;20037;-64
2022/11/28 06:51:40;;;;;;;16.58;11.38;;;5.60;76.20;;;;;;5057726;28;20033;-65
2022/11/28 06:54:07;;;;;;;17.48;11.40;;;5.60;76.20;;;;;;5063555;28;20052;-65
2022/11/28 06:56:33;;;;;;;15.55;10.93;;;5.60;76.20;;;;;;5062636;28;20041;-64
2022/11/28 06:58:59;;;;;;;15.93;11.00;;;5.60;76.20;;;;;;5061999;28;20040;-65
2022/11/28 07:01:29;;;;;;;15.43;10.43;;;5.60;76.20;;;;;;5070727;28;20058;-65
2022/11/28 07:03:56;;;;;;;16.73;11.30;;;5.60;76.20;;;;;;5063525;28;20436;-65
2022/11/28 07:06:23;;;;;;;18.35;11.52;;;5.70;76.30;;;;;;5063699;28;20020;-65
2022/11/28 07:08:49;;;;;;;15.10;9.90;;;5.70;76.30;;;;;;5060110;28;20053;-64
2022/11/28 07:11:24;;;;;;;16.80;10.50;;;5.70;76.30;;;;;;5067409;28;20033;-65
2022/11/28 07:13:50;;;;;;;17.13;11.90;;;5.70;76.30;;;;;;5060518;28;20131;-64
2022/11/28 07:16:22;;;;;;;16.83;12.02;;;5.70;76.10;;;;;;5058363;28;20048;-64
2022/11/28 07:18:49;;;;;;;17.02;11.00;;;5.80;76.20;;;;;;5062839;28;20056;-65
2022/11/28 07:21:15;;;;;;;16.63;11.15;;;5.80;76.20;;;;;;5066297;28;20112;-65
2022/11/28 07:23:42;;;;;;;15.50;10.70;;;5.80;76.10;;;;;;5066752;28;20367;-65
2022/11/28 07:26:10;;;;;;;20.85;11.13;;;5.80;76.10;;;;;;5061875;28;20037;-64
2022/11/28 07:28:36;;;;;;;19.58;12.10;;;5.80;76.00;;;;;;5053952;28;20025;-66
2022/11/28 07:31:05;;;;;;;18.02;11.82;;;5.80;75.90;;;;;;5049272;28;20067;-65
2022/11/28 07:33:31;;;;;;;22.83;13.88;;;5.90;75.90;;;;;;5055428;28;20049;-64
2022/11/28 07:36:01;;;;;;;18.08;12.02;;;5.90;76.00;;;;;;5060039;28;20170;-64
2022/11/28 07:38:27;;;;;;;18.15;11.65;;;5.90;75.90;;;;;;5056372;28;20029;-64
2022/11/28 07:40:53;;;;;;;18.52;11.13;;;5.90;75.80;;;;;;5058217;28;20036;-64
2022/11/28 07:43:18;;;;;;;17.67;12.10;;;6.00;75.90;;;;;;5053999;28;20037;-64
2022/11/28 07:45:44;;;;;;;20.27;11.93;;;5.90;75.80;;;;;;5056425;28;20021;-64
2022/11/28 07:48:09;;;;;;;20.15;12.18;;;6.00;75.70;;;;;;5054744;28;20032;-64
2022/11/28 07:50:38;;;;;;;17.55;11.60;;;6.00;75.70;;;;;;5063242;28;20048;-64
2022/11/28 07:53:03;;;;;;;19.52;12.38;;;6.00;75.70;;;;;;5056675;28;20037;-63
2022/11/28 07:55:29;;;;;;;21.13;12.75;;;6.00;75.70;;;;;;5065024;28;20388;-64
2022/11/28 07:57:55;;;;;;;18.80;11.57;;;6.00;75.70;;;;;;5070240;28;20424;-64
2022/11/28 08:00:21;;;;;;;20.58;12.15;;;6.00;75.70;;;;;;5071238;28;20059;-63
2022/11/28 08:02:47;;;;;;;20.67;12.13;;;6.00;75.60;;;;;;5069744;28;20025;-64
2022/11/28 08:05:12;;;;;;;20.55;12.38;;;6.00;76.30;;;;;;5060390;28;20085;-63
2022/11/28 08:07:38;;;;;;;23.15;13.13;;;6.00;75.60;;;;;;5072078;28;20025;-63
2022/11/28 08:10:07;;;;;;;23.73;12.98;;;6.00;75.60;;;;;;5058323;28;20487;-63
2022/11/28 08:12:33;;;;;;;19.05;12.00;;;6.00;75.60;;;;;;5064868;28;20024;-64
2022/11/28 08:14:58;;;;;;;18.90;11.98;;;6.00;76.30;;;;;;5071400;28;20059;-64
2022/11/28 08:17:24;;;;;;;22.58;11.98;;;6.00;75.60;;;;;;5044144;28;20033;-63
2022/11/28 08:19:50;;;;;;;19.60;12.32;;;6.10;75.60;;;;;;5057407;28;20049;-63
2022/11/28 08:22:15;;;;;;;19.90;12.05;;;6.10;75.70;;;;;;5055900;28;20024;-63
2022/11/28 08:24:41;;;;;;;20.55;12.80;;;6.10;75.70;;;;;;5060925;28;20033;-63
2022/11/28 08:27:07;;;;;;;21.42;11.52;;;6.10;75.70;;;;;;5066159;28;20059;-64
2022/11/28 08:29:33;;;;;;;17.73;11.10;;;6.10;75.60;;;;;;5068657;28;20035;-64
2022/11/28 08:31:59;;;;;;;17.83;11.80;;;6.10;75.60;;;;;;5042209;28;20021;-64
2022/11/28 08:34:25;;;;;;;18.85;11.18;;;6.10;75.50;;;;;;5069889;28;20032;-65
2022/11/28 08:36:50;;;;;;;16.77;10.82;;;6.20;75.50;;;;;;5065354;28;20031;-63
2022/11/28 08:39:16;;;;;;;19.25;11.25;;;6.20;75.50;;;;;;5066817;28;20052;-63
2022/11/28 08:41:42;;;;;;;16.65;10.07;;;6.20;75.50;;;;;;5068078;28;20486;-64
2022/11/28 08:44:07;;;;;;;15.68;10.80;;;6.20;75.50;;;;;;5052413;28;20025;-63
2022/11/28 08:46:33;;;;;;;16.10;11.40;;;6.20;75.50;;;;;;5042197;28;20034;-63
2022/11/28 08:49:00;;;;;;;17.48;11.18;;;6.20;75.50;;;;;;5070388;28;20032;-63
2022/11/28 08:51:28;;;;;;;18.50;11.27;;;6.20;75.40;;;;;;5067715;28;20475;-63
2022/11/28 08:53:55;;;;;;;18.85;11.35;;;6.20;75.40;;;;;;5071943;28;20127;-63
2022/11/28 08:56:21;;;;;;;17.55;11.20;;;6.20;75.40;;;;;;5065896;28;20028;-62
2022/11/28 08:58:47;;;;;;;16.13;10.60;;;6.20;75.40;;;;;;5066252;28;20122;-65
2022/11/28 09:01:24;;;;;;;17.23;10.88;;;6.30;75.50;;;;;;5070699;28;20029;-63
2022/11/28 09:03:50;;;;;;;16.75;10.82;;;6.30;75.50;;;;;;5062335;28;20033;-63
2022/11/28 09:06:17;;;;;;;19.98;11.68;;;6.30;75.50;;;;;;5059931;28;20092;-64
2022/11/28 09:08:43;;;;;;;20.60;12.30;;;6.30;75.50;;;;;;5061449;28;20355;-63
2022/11/28 09:11:10;;;;;;;20.40;11.63;;;6.30;75.60;;;;;;5062703;28;20088;-63
2022/11/28 09:13:37;;;;;;;23.00;12.77;;;6.30;75.30;;;;;;5048681;28;20078;-63
2022/11/28 09:16:03;;;;;;;20.92;10.77;;;6.30;75.30;;;;;;5067146;28;20043;-63
2022/11/28 09:18:29;;;;;;;19.95;11.90;;;6.30;75.30;;;;;;5057546;28;20051;-65
2022/11/28 09:21:09;;;;;;;20.90;13.05;;;6.40;75.50;;;;;;5060240;28;20021;-63
2022/11/28 09:23:35;;;;;;;25.77;15.45;;;6.40;75.60;;;;;;5069741;28;20486;-65
2022/11/28 09:26:09;;;;;;;22.60;13.18;;;6.40;75.60;;;;;;5069118;28;20022;-64
2022/11/28 09:28:35;;;;;;;16.88;9.75;;;6.40;75.60;;;;;;5051194;28;20025;-64
2022/11/28 09:31:02;;;;;;;22.10;12.45;;;6.40;75.50;;;;;;5059159;28;20029;-63
2022/11/28 09:33:28;;;;;;;20.58;13.15;;;6.40;75.50;;;;;;5061327;28;20036;-63
2022/11/28 09:35:54;;;;;;;22.73;13.18;;;6.50;75.60;;;;;;5062042;28;20442;-64
2022/11/28 09:38:21;;;;;;;28.27;14.32;;;6.50;75.60;;;;;;5064065;28;20412;-65
2022/11/28 09:40:47;;;;;;;25.52;13.45;;;6.50;75.70;;;;;;5082900;28;20032;-64
2022/11/28 09:43:41;;;;;;;26.90;13.77;;;6.50;75.60;;;;;;5075125;28;20029;-65
2022/11/28 09:46:15;;;;;;;15.97;10.27;;;6.60;75.70;;;;;;5066637;28;20044;-65
2022/11/28 09:48:45;;;;;;;22.55;14.77;;;6.60;75.60;;;;;;5063259;28;20436;-64
2022/11/28 09:51:33;;;;;;;27.08;14.25;;;6.70;75.50;;;;;;5062017;28;20032;-64
2022/11/28 09:54:32;;;;;;;25.23;14.18;;;6.70;75.30;;;;;;5044604;28;20039;-64
2022/11/28 09:57:00;;;;;;;25.00;14.40;;;6.70;75.40;;;;;;5033836;28;20432;-63
2022/11/28 09:59:29;;;;;;;27.45;14.40;;;6.80;75.30;;;;;;5052250;28;20033;-64
2022/11/28 10:02:12;;;;;;;25.63;15.75;;;6.80;75.30;;;;;;5062700;28;20036;-63
2022/11/28 10:04:59;;;;;;;21.63;12.50;;;6.80;75.30;;;;;;5053454;28;20020;-63
2022/11/28 10:07:49;;;;;;;28.65;16.35;;;6.80;75.30;;;;;;5034433;28;20116;-63
2022/11/28 10:10:49;;;;;;;30.38;16.33;;;6.90;75.40;;;;;;5055590;28;20063;-64
2022/11/28 10:13:17;;;;;;;40.97;21.40;;;6.90;75.30;;;;;;5059599;28;20029;-64
2022/11/28 10:16:06;;;;;;;32.20;17.42;;;6.90;75.00;;;;;;5056501;28;20356;-65
2022/11/28 10:18:32;;;;;;;32.15;16.20;;;6.90;74.60;;;;;;5069305;28;20048;-64
2022/11/28 10:21:02;;;;;;;31.75;16.50;;;7.00;74.70;;;;;;5070216;28;20029;-64
2022/11/28 10:23:42;;;;;;;36.95;18.60;;;7.00;74.90;;;;;;5063547;28;20060;-64
2022/11/28 10:26:35;;;;;;;36.03;19.30;;;7.00;74.90;;;;;;5061591;28;20025;-64
2022/11/28 10:29:10;;;;;;;33.83;18.23;;;7.00;74.90;;;;;;5065966;28;20024;-64
2022/11/28 10:31:40;;;;;;;36.33;19.27;;;7.00;74.80;;;;;;5063136;28;20029;-64
2022/11/28 10:34:12;;;;;;;37.55;19.20;;;7.10;74.80;;;;;;5062307;28;20056;-64
2022/11/28 10:37:09;;;;;;;39.20;19.60;;;7.10;74.80;;;;;;5053193;28;20022;-64
2022/11/28 10:39:40;;;;;;;34.40;17.35;;;7.10;74.60;;;;;;5043565;28;20041;-64
2022/11/28 10:42:22;;;;;;;35.38;18.15;;;7.20;74.50;;;;;;5057822;28;20099;-65
2022/11/28 10:45:24;;;;;;;39.58;19.45;;;7.20;74.60;;;;;;5061121;28;20025;-64
2022/11/28 10:48:12;;;;;;;36.40;18.25;;;7.20;74.70;;;;;;5048576;28;20032;-63
2022/11/28 10:51:05;;;;;;;35.83;17.77;;;7.30;74.80;;;;;;5057272;28;20479;-63
2022/11/28 10:53:43;;;;;;;33.60;17.50;;;7.30;74.70;;;;;;5061597;28;20029;-64
2022/11/28 10:56:26;;;;;;;32.63;17.35;;;7.40;74.70;;;;;;5057720;28;20522;-63
2022/11/28 10:59:11;;;;;;;32.50;16.75;;;7.40;74.50;;;;;;5064567;28;20083;-62
2022/11/28 11:01:39;;;;;;;29.80;18.05;;;7.40;74.60;;;;;;5064419;28;20025;-63
2022/11/28 11:04:15;;;;;;;30.52;16.63;;;7.50;74.60;;;;;;5069918;28;20474;-63
2022/11/28 11:06:41;;;;;;;32.72;18.13;;;7.60;74.70;;;;;;5054606;28;20028;-63
2022/11/28 11:09:10;;;;;;;33.58;17.35;;;7.60;74.60;;;;;;5063240;28;20079;-65
2022/11/28 11:11:45;;;;;;;33.47;18.40;;;7.60;74.50;;;;;;5064968;28;20016;-64
2022/11/28 11:14:11;;;;;;;30.77;18.08;;;7.70;75.00;;;;;;5056611;28;20025;-63
2022/11/28 11:16:55;;;;;;;29.15;17.63;;;7.70;74.20;;;;;;5060378;28;20036;-63
2022/11/28 11:19:35;;;;;;;29.63;16.13;;;7.80;74.20;;;;;;4968688;28;20088;-63
2022/11/28 11:22:04;;;;;;;34.25;17.92;;;7.80;73.90;;;;;;5066271;28;20040;-63
2022/11/28 11:24:30;;;;;;;29.30;16.92;;;7.80;73.90;;;;;;5059095;28;20075;-63
2022/11/28 11:27:12;;;;;;;34.53;17.92;;;7.80;73.90;;;;;;5058341;28;20029;-63
2022/11/28 11:29:39;;;;;;;30.00;17.83;;;7.80;73.80;;;;;;5052136;28;20043;-63
2022/11/28 11:32:15;;;;;;;31.35;18.30;;;7.80;73.90;;;;;;5063206;28;20044;-63
2022/11/28 11:34:45;;;;;;;29.38;17.65;;;7.90;74.00;;;;;;5057275;28;20086;-64
2022/11/28 11:37:31;;;;;;;31.05;17.13;;;7.90;73.80;;;;;;5059395;28;20058;-64
2022/11/28 11:39:57;;;;;;;28.95;17.08;;;7.90;73.60;;;;;;5059239;28;21386;-63
2022/11/28 11:42:30;;;;;;;28.58;17.23;;;7.90;73.70;;;;;;5065382;28;20091;-64
2022/11/28 11:44:56;;;;;;;28.00;17.27;;;7.90;73.60;;;;;;5057224;28;20089;-64
2022/11/28 11:47:42;;;;;;;30.80;17.52;;;7.90;73.70;;;;;;5059055;28;20029;-63
2022/11/28 11:50:17;;;;;;;29.95;18.55;;;8.00;73.70;;;;;;5065358;28;20025;-64
2022/11/28 11:52:58;;;;;;;27.40;15.93;;;8.00;73.80;;;;;;5064555;28;20084;-63
2022/11/28 11:55:24;;;;;;;25.98;16.85;;;8.00;73.90;;;;;;5063517;28;20048;-63
2022/11/28 11:57:52;;;;;;;44.92;25.08;;;8.10;73.90;;;;;;5059821;28;20017;-63
2022/11/28 12:00:25;;;;;;;44.50;24.60;;;8.10;73.80;;;;;;5055538;28;20040;-65
2022/11/28 12:03:29;;;;;;;35.45;20.40;;;8.10;73.80;;;;;;5057933;28;20090;-63
2022/11/28 12:06:09;;;;;;;26.85;17.52;;;8.20;73.70;;;;;;5017076;28;20040;-63
2022/11/28 12:08:39;;;;;;;34.50;18.45;;;8.20;73.80;;;;;;5033832;28;20028;-63
2022/11/28 12:11:34;;;;;;;37.90;21.83;;;8.30;73.80;;;;;;5060396;28;20031;-64
2022/11/28 12:14:31;;;;;;;29.13;18.45;;;8.40;73.20;;;;;;5050782;28;20063;-63
2022/11/28 12:17:27;;;;;;;53.00;26.83;;;8.40;73.20;;;;;;5062362;28;20077;-65
2022/11/28 12:20:03;;;;;;;41.13;23.13;;;8.50;73.30;;;;;;5060529;28;20044;-64
2022/11/28 12:22:51;;;;;;;30.75;19.30;;;8.50;73.40;;;;;;5060110;28;20058;-64
2022/11/28 12:25:35;;;;;;;31.65;20.02;;;8.60;73.30;;;;;;5057041;28;20021;-63
2022/11/28 12:28:43;;;;;;;29.45;18.23;;;8.60;72.80;;;;;;5060399;28;20502;-63
2022/11/28 12:31:16;;;;;;;28.38;17.83;;;8.60;72.90;;;;;;5053951;28;20035;-64
2022/11/28 12:33:58;;;;;;;31.23;18.73;;;8.70;73.20;;;;;;5063113;28;20025;-63
2022/11/28 12:36:34;;;;;;;33.38;18.20;;;8.70;72.80;;;;;;5058391;28;20028;-63
2022/11/28 12:39:19;;;;;;;28.35;17.73;;;8.80;73.10;;;;;;5062109;28;20375;-63
2022/11/28 12:42:17;;;;;;;27.60;17.98;;;8.80;72.90;;;;;;5059077;28;20048;-62
2022/11/28 12:45:07;;;;;;;30.30;18.63;;;8.90;72.80;;;;;;5055989;28;20040;-63
2022/11/28 12:47:42;;;;;;;43.75;28.13;;;8.90;72.80;;;;;;5069840;28;20044;-63
2022/11/28 12:50:35;;;;;;;31.85;19.08;;;8.90;72.70;;;;;;5058091;28;20032;-63
2022/11/28 12:53:36;;;;;;;29.55;17.98;;;8.90;72.40;;;;;;5054932;28;20024;-64
2022/11/28 12:56:04;;;;;;;34.15;19.27;;;8.90;72.30;;;;;;5056658;28;20067;-66
2022/11/28 12:58:40;;;;;;;31.70;19.45;;;9.00;72.70;;;;;;5066333;28;20077;-65
2022/11/28 13:01:53;;;;;;;29.83;18.73;;;9.00;72.50;;;;;;5060571;28;20036;-64
2022/11/28 13:04:59;;;;;;;79.63;54.85;;;9.00;72.20;;;;;;4991519;28;20046;-64
2022/11/28 13:08:02;;;;;;;39.17;23.73;;;9.00;72.00;;;;;;4982996;28;20038;-65